Time;durP1;ratioP1;P1;durP2;ratioP2;P2;SDS_P1;SDS_P2;PMS_P1;PMS_P2;Temp;Humidity;BMP_temperature;BMP_pressure;BME280_temperature;BME280_humidity;BME280_pressure;Samples;Min_cycle;Max_cycle;Signal;HPM_P1;HPM_P2
2022/05/29 00:01:32;;;;;;;6.82;1.50;;;;;;;7.25;100.00;96525.06;5016629;28;20609;-72
2022/05/29 00:03:58;;;;;;;6.45;1.50;;;;;;;7.07;100.00;96528.53;5015584;28;20044;-72
2022/05/29 00:06:24;;;;;;;4.57;1.20;;;;;;;6.91;100.00;96537.94;5016476;28;20143;-71
2022/05/29 00:08:49;;;;;;;5.38;1.42;;;;;;;6.93;100.00;96530.56;5013343;28;20113;-73
2022/05/29 00:11:15;;;;;;;4.72;1.27;;;;;;;6.99;100.00;96524.34;5016612;28;20531;-70
2022/05/29 00:13:42;;;;;;;5.25;1.20;;;;;;;7.02;100.00;96527.63;4993077;28;20486;-72
2022/05/29 00:16:08;;;;;;;6.07;1.33;;;;;;;6.95;100.00;96525.84;4995472;28;20140;-73
2022/05/29 00:18:36;;;;;;;8.93;1.38;;;;;;;6.85;100.00;96525.56;5016074;28;20079;-71
2022/05/29 00:21:02;;;;;;;4.82;1.20;;;;;;;6.81;100.00;96520.91;5015857;28;20050;-70
2022/05/29 00:23:29;;;;;;;5.60;1.40;;;;;;;6.74;100.00;96526.28;5012092;28;20046;-70
2022/05/29 00:25:55;;;;;;;6.85;1.92;;;;;;;6.65;100.00;96517.00;5014933;28;20037;-72
2022/05/29 00:28:21;;;;;;;8.27;1.60;;;;;;;6.58;100.00;96513.59;5012783;28;20037;-72
2022/05/29 00:30:47;;;;;;;8.07;2.33;;;;;;;6.39;100.00;96515.44;5016139;28;20136;-71
2022/05/29 00:33:13;;;;;;;5.70;1.17;;;;;;;6.26;100.00;96511.06;5012202;28;20072;-72
2022/05/29 00:35:39;;;;;;;5.60;1.13;;;;;;;6.47;100.00;96511.69;5015058;28;20036;-71
2022/05/29 00:38:07;;;;;;;8.68;1.70;;;;;;;6.33;100.00;96517.13;4992048;28;20045;-72
2022/05/29 00:40:36;;;;;;;6.20;1.40;;;;;;;6.42;100.00;96510.47;5015124;28;20050;-73
2022/05/29 00:43:02;;;;;;;4.20;1.02;;;;;;;6.51;100.00;96504.88;5013396;28;20046;-70
2022/05/29 00:45:31;;;;;;;5.53;1.27;;;;;;;6.47;100.00;96509.03;5014430;28;20514;-72
2022/05/29 00:47:57;;;;;;;6.10;1.42;;;;;;;6.22;100.00;96509.06;5014700;28;20072;-72
2022/05/29 00:50:23;;;;;;;6.13;1.20;;;;;;;6.05;100.00;96498.19;5013020;28;20400;-71
2022/05/29 00:52:50;;;;;;;4.35;1.15;;;;;;;6.07;100.00;96498.75;5015053;28;20049;-71
2022/05/29 00:55:23;;;;;;;7.78;1.40;;;;;;;5.94;100.00;96502.38;5013312;28;20136;-71
2022/05/29 00:57:54;;;;;;;4.80;1.38;;;;;;;5.87;100.00;96490.97;5013927;28;20049;-72
2022/05/29 01:00:26;;;;;;;5.15;1.30;;;;;;;6.03;100.00;96497.59;5012379;28;20040;-72
2022/05/29 01:02:54;;;;;;;5.22;1.50;;;;;;;6.05;100.00;96488.38;5013351;28;20046;-72
2022/05/29 01:05:21;;;;;;;5.18;1.42;;;;;;;5.92;100.00;96493.00;5015971;28;20116;-72
2022/05/29 01:08:02;;;;;;;4.70;1.40;;;;;;;6.04;100.00;96480.63;5030602;28;20552;-71
2022/05/29 01:10:50;;;;;;;5.07;1.20;;;;;;;5.80;100.00;96483.03;5014075;28;20041;-72
2022/05/29 01:13:29;;;;;;;8.65;1.23;;;;;;;5.56;100.00;96481.22;5014443;28;20041;-71
2022/05/29 01:15:59;;;;;;;4.65;1.50;;;;;;;5.31;100.00;96486.50;5016325;28;20143;-72
2022/05/29 01:18:40;;;;;;;4.97;1.40;;;;;;;5.23;100.00;96478.78;5014808;28;20110;-71
2022/05/29 01:21:17;;;;;;;4.83;1.10;;;;;;;5.33;100.00;96481.78;5014127;28;20054;-71
2022/05/29 01:24:05;;;;;;;5.20;1.50;;;;;;;5.44;100.00;96467.81;5011864;28;20280;-71
2022/05/29 01:27:08;;;;;;;7.72;1.27;;;;;;;5.43;100.00;96481.28;5015179;28;20808;-71
2022/05/29 01:30:01;;;;;;;8.13;1.60;;;;;;;5.31;100.00;96476.69;5017630;28;20125;-71
2022/05/29 01:32:49;;;;;;;6.78;1.40;;;;;;;5.20;100.00;96479.19;5007086;28;20289;-73
2022/05/29 01:35:44;;;;;;;5.60;1.13;;;;;;;5.41;100.00;96478.06;5017246;28;20084;-71
2022/05/29 01:38:23;;;;;;;5.93;1.35;;;;;;;5.59;100.00;96475.44;5017762;28;20045;-72
2022/05/29 01:41:02;;;;;;;5.18;1.23;;;;;;;5.54;100.00;96470.00;5017439;28;20045;-71
2022/05/29 01:43:38;;;;;;;5.30;1.30;;;;;;;5.26;100.00;96473.84;5017790;28;20079;-73
2022/05/29 01:46:11;;;;;;;6.85;1.38;;;;;;;4.98;100.00;96473.41;5017014;28;20489;-71
2022/05/29 01:49:04;;;;;;;10.38;1.73;;;;;;;4.93;100.00;96478.56;5016357;28;20268;-70
2022/05/29 01:51:55;;;;;;;6.03;1.38;;;;;;;4.98;100.00;96479.56;5019743;28;20042;-71
2022/05/29 01:54:24;;;;;;;7.65;1.20;;;;;;;4.82;100.00;96472.06;5016933;28;20037;-71
2022/05/29 01:56:56;;;;;;;4.22;1.30;;;;;;;4.69;100.00;96478.25;5010782;28;20034;-71
2022/05/29 01:59:25;;;;;;;;;;;;;;;4.79;100.00;96477.81;5016172;28;20065;-71
2022/05/29 02:01:58;;;;;;;4.72;1.10;;;;;;;4.81;100.00;96470.44;5017291;28;20368;-71
2022/05/29 02:04:27;;;;;;;2.88;1.10;;;;;;;5.03;100.00;96465.63;4998245;28;20465;-71
2022/05/29 02:09:47;;;;;;;6.07;1.60;;;;;;;4.94;100.00;96470.38;5017106;28;20045;-73
2022/05/29 02:12:20;;;;;;;6.45;1.40;;;;;;;4.98;100.00;96466.28;5018943;28;20056;-73
2022/05/29 02:15:01;;;;;;;7.57;1.40;;;;;;;5.02;100.00;96472.78;5016155;28;20485;-72
2022/05/29 02:17:34;;;;;;;3.40;1.20;;;;;;;5.13;100.00;96462.50;5013815;28;20045;-71
2022/05/29 02:20:10;;;;;;;3.95;1.40;;;;;;;5.05;100.00;96463.56;5017168;28;20133;-71
2022/05/29 02:22:36;;;;;;;5.95;1.50;;;;;;;5.10;100.00;96457.66;5016811;28;20149;-71
2022/05/29 02:25:10;;;;;;;5.32;1.10;;;;;;;4.74;100.00;96457.22;5017006;28;20037;-72
2022/05/29 02:27:43;;;;;;;8.57;1.48;;;;;;;4.51;100.00;96456.09;5018234;28;20036;-71
2022/05/29 02:30:09;;;;;;;10.23;1.48;;;;;;;4.65;100.00;96452.38;5018096;28;20112;-71
2022/05/29 02:32:53;;;;;;;8.55;1.20;;;;;;;4.69;100.00;96454.41;5011185;28;20149;-72
2022/05/29 02:35:30;;;;;;;4.72;1.23;;;;;;;4.82;100.00;96447.38;5019577;28;20698;-71
2022/05/29 02:38:22;;;;;;;6.97;1.30;;;;;;;4.79;100.00;96445.19;5017811;28;20104;-71
2022/05/29 02:41:08;;;;;;;5.47;1.40;;;;;;;4.66;100.00;96441.56;5010407;28;20444;-71
2022/05/29 02:43:42;;;;;;;6.18;1.92;;;;;;;4.52;100.00;96433.91;5013794;28;20075;-73
2022/05/29 02:46:34;;;;;;;3.58;1.20;;;;;;;4.64;100.00;96446.25;5016081;28;20411;-71
2022/05/29 02:49:17;;;;;;;5.50;1.30;;;;;;;4.77;100.00;96447.22;5015505;28;21343;-73
2022/05/29 02:52:16;;;;;;;6.40;1.40;;;;;;;4.68;100.00;96442.19;5017707;28;20041;-71
2022/05/29 02:54:42;;;;;;;4.65;1.30;;;;;;;4.62;100.00;96444.84;4991056;28;20052;-71
2022/05/29 02:57:08;;;;;;;6.53;1.30;;;;;;;4.46;100.00;96432.91;5018447;28;20396;-71
2022/05/29 03:00:02;;;;;;;3.50;1.30;;;;;;;4.40;100.00;96436.38;5013920;28;20485;-71
2022/05/29 03:02:49;;;;;;;5.10;1.25;;;;;;;4.29;100.00;96429.91;5015693;28;20041;-72
2022/05/29 03:05:29;;;;;;;4.82;1.20;;;;;;;4.25;100.00;96425.22;5017013;28;20134;-70
2022/05/29 03:08:24;;;;;;;4.85;1.65;;;;;;;4.09;100.00;96432.59;4998958;28;20125;-73
2022/05/29 03:11:09;;;;;;;5.90;1.40;;;;;;;4.22;100.00;96425.66;5005563;28;20059;-73
2022/05/29 03:13:47;;;;;;;8.35;1.55;;;;;;;4.32;100.00;96432.13;5014615;28;20046;-71
2022/05/29 03:16:51;;;;;;;4.40;1.40;;;;;;;4.34;100.00;96426.63;5015323;28;20132;-74
2022/05/29 03:19:35;;;;;;;8.45;1.92;;;;;;;4.35;100.00;96438.84;4953192;28;20102;-74
2022/05/29 03:22:12;;;;;;;8.05;1.73;;;;;;;4.38;100.00;96428.66;5030299;28;20088;-73
2022/05/29 03:25:12;;;;;;;6.38;2.05;;;;;;;4.19;100.00;96429.50;5008534;28;21110;-75
2022/05/29 03:27:45;;;;;;;5.50;2.40;;;;;;;4.16;100.00;96433.41;5030008;28;20033;-73
2022/05/29 03:30:20;;;;;;;9.85;2.13;;;;;;;4.28;100.00;96419.50;5018334;28;20041;-76
2022/05/29 03:32:52;;;;;;;5.15;2.10;;;;;;;4.28;100.00;96425.63;5003772;28;20061;-74
2022/05/29 03:35:18;;;;;;;5.65;2.00;;;;;;;4.24;100.00;96418.31;4996373;28;20175;-73
2022/05/29 03:37:44;;;;;;;9.30;2.10;;;;;;;4.19;100.00;96419.72;5016720;28;20380;-70
2022/05/29 03:40:10;;;;;;;11.50;2.33;;;;;;;4.15;100.00;96415.91;5013942;28;20103;-71
2022/05/29 03:42:35;;;;;;;7.05;2.55;;;;;;;4.08;100.00;96417.75;5014982;28;20045;-73
2022/05/29 03:45:01;;;;;;;9.57;2.80;;;;;;;4.21;100.00;96424.03;5031793;28;20119;-72
2022/05/29 03:47:27;;;;;;;7.10;2.15;;;;;;;4.33;100.00;96420.50;5015643;28;20030;-71
2022/05/29 03:49:52;;;;;;;5.95;2.40;;;;;;;4.33;100.00;96412.56;5014534;28;20040;-71
2022/05/29 03:52:18;;;;;;;6.53;2.20;;;;;;;4.31;100.00;96413.81;5017331;28;20067;-73
2022/05/29 03:54:43;;;;;;;7.40;2.05;;;;;;;4.28;100.00;96411.56;5012472;28;20044;-73
2022/05/29 03:57:09;;;;;;;5.68;1.88;;;;;;;4.26;100.00;96413.59;5014223;28;20049;-72
2022/05/29 03:59:34;;;;;;;6.38;1.70;;;;;;;4.29;100.00;96413.19;5014687;28;20481;-70
2022/05/29 04:02:00;;;;;;;7.53;2.25;;;;;;;4.37;100.00;96412.97;5012782;28;20508;-71
2022/05/29 04:04:25;;;;;;;7.90;2.28;;;;;;;4.30;100.00;96415.63;5012433;28;20048;-71
2022/05/29 04:06:51;;;;;;;10.10;2.25;;;;;;;4.31;100.00;96411.97;5013217;28;20125;-70
2022/05/29 04:12:03;;;;;;;8.82;2.15;;;;;;;4.32;100.00;96420.72;5015734;28;20095;-73
2022/05/29 04:14:30;;;;;;;11.05;2.25;;;;;;;4.47;100.00;96415.97;5013066;28;20316;-71
2022/05/29 04:16:55;;;;;;;10.48;2.13;;;;;;;4.41;100.00;96419.47;5016635;28;20041;-71
2022/05/29 04:19:21;;;;;;;7.80;2.05;;;;;;;4.43;100.00;96422.69;5016261;28;20130;-71
2022/05/29 04:21:49;;;;;;;7.40;1.98;;;;;;;4.38;100.00;96417.25;5000440;28;20064;-71
2022/05/29 04:24:19;;;;;;;7.03;1.90;;;;;;;4.46;100.00;96407.22;5014299;28;20368;-72
2022/05/29 04:26:45;;;;;;;5.68;1.60;;;;;;;4.51;100.00;96411.03;5014723;28;20037;-73
2022/05/29 04:29:11;;;;;;;5.03;1.98;;;;;;;4.57;100.00;96410.22;5015314;28;20439;-71
2022/05/29 04:31:36;;;;;;;5.57;1.65;;;;;;;4.64;100.00;96411.81;5000064;28;20050;-71
2022/05/29 04:34:02;;;;;;;7.63;1.90;;;;;;;4.76;100.00;96404.00;5014522;28;20076;-70
2022/05/29 04:36:27;;;;;;;4.18;1.77;;;;;;;4.85;100.00;96412.50;5005614;28;20049;-72
2022/05/29 04:38:53;;;;;;;12.35;2.10;;;;;;;4.91;100.00;96404.53;4994323;28;20047;-71
2022/05/29 04:41:25;;;;;;;6.68;1.95;;;;;;;5.07;100.00;96405.03;5014422;28;20191;-73
2022/05/29 04:43:50;;;;;;;;;;;;;;;5.12;100.00;96411.31;5029427;28;20049;-72
2022/05/29 04:46:16;;;;;;;7.55;1.70;;;;;;;5.18;100.00;96401.69;5012725;28;20339;-72
2022/05/29 04:48:41;;;;;;;5.05;1.40;;;;;;;5.15;100.00;96396.81;5012144;28;20448;-73
2022/05/29 04:51:07;;;;;;;4.80;1.50;;;;;;;5.01;100.00;96396.91;5012748;28;20555;-71
2022/05/29 04:53:32;;;;;;;5.40;1.50;;;;;;;5.02;100.00;96401.19;5031414;28;20042;-71
2022/05/29 04:55:59;;;;;;;5.15;1.75;;;;;;;5.01;100.00;96407.50;5016328;28;20050;-71
2022/05/29 04:58:27;;;;;;;7.22;1.63;;;;;;;5.06;100.00;96398.91;5015359;28;20128;-72
2022/05/29 05:00:57;;;;;;;4.68;1.60;;;;;;;5.09;100.00;96405.63;5013847;28;20049;-71
2022/05/29 05:03:23;;;;;;;7.65;1.58;;;;;;;5.18;100.00;96404.34;5017339;28;20547;-73
2022/05/29 05:05:49;;;;;;;5.47;1.50;;;;;;;5.18;100.00;96397.19;5018729;28;20098;-72
2022/05/29 05:08:14;;;;;;;7.90;2.00;;;;;;;5.39;100.00;96392.53;5016741;28;20114;-72
2022/05/29 05:10:41;;;;;;;7.45;1.70;;;;;;;5.60;100.00;96392.13;5020627;28;20496;-72
2022/05/29 05:13:08;;;;;;;9.02;1.65;;;;;;;5.66;100.00;96393.91;5016412;28;20041;-72
2022/05/29 05:15:34;;;;;;;7.97;1.80;;;;;;;5.83;100.00;96389.66;5018912;28;20493;-72
2022/05/29 05:18:00;;;;;;;8.25;2.05;;;;;;;5.88;100.00;96387.16;5016984;28;20061;-72
2022/05/29 05:20:30;;;;;;;10.45;1.85;;;;;;;6.07;100.00;96384.53;5017760;28;20049;-72
2022/05/29 05:22:56;;;;;;;7.05;1.65;;;;;;;6.06;100.00;96388.22;4999331;28;20504;-72
2022/05/29 05:25:22;;;;;;;7.47;1.90;;;;;;;6.12;100.00;96387.34;5016069;28;20906;-72
2022/05/29 05:27:49;;;;;;;6.97;1.60;;;;;;;6.24;100.00;96377.59;5018271;28;20468;-71
2022/05/29 05:30:15;;;;;;;6.88;1.70;;;;;;;6.34;100.00;96375.22;5018390;28;20055;-74
2022/05/29 05:32:40;;;;;;;8.88;1.70;;;;;;;6.46;100.00;96371.81;5003854;28;20057;-75
2022/05/29 05:35:07;;;;;;;4.63;1.70;;;;;;;6.51;100.00;96382.59;5017305;28;20041;-72
2022/05/29 05:37:35;;;;;;;8.18;1.70;;;;;;;6.56;100.00;96377.41;5018569;28;20034;-74
2022/05/29 05:40:08;;;;;;;4.93;1.67;;;;;;;6.46;100.00;96372.63;5020474;28;20234;-72
2022/05/29 05:42:34;;;;;;;6.60;1.63;;;;;;;6.53;100.00;96378.66;5020830;28;20041;-72
2022/05/29 05:44:59;;;;;;;8.02;1.80;;;;;;;6.68;100.00;96370.28;5021244;28;20056;-75
2022/05/29 05:47:24;;;;;;;10.70;1.88;;;;;;;6.82;100.00;96370.91;5014427;28;20102;-73
2022/05/29 05:49:51;;;;;;;8.23;1.85;;;;;;;6.92;100.00;96369.31;5015239;28;20083;-72
2022/05/29 05:52:18;;;;;;;5.53;1.58;;;;;;;7.03;100.00;96369.59;5016044;28;20049;-72
2022/05/29 05:54:44;;;;;;;4.80;1.27;;;;;;;7.09;100.00;96366.03;5015996;28;20029;-73
2022/05/29 05:57:10;;;;;;;7.57;1.73;;;;;;;7.15;100.00;96359.75;5020042;28;20935;-74
2022/05/29 05:59:37;;;;;;;10.60;2.15;;;;;;;7.24;100.00;96363.75;5017755;28;20034;-73
2022/05/29 06:02:03;;;;;;;7.90;1.58;;;;;;;7.23;100.00;96364.75;4998415;28;20041;-75
2022/05/29 06:04:28;;;;;;;9.38;1.80;;;;;;;7.21;100.00;96358.84;5016855;28;20289;-72
2022/05/29 06:06:54;;;;;;;7.35;2.00;;;;;;;7.25;100.00;96355.53;5020234;28;20532;-72
2022/05/29 06:09:21;;;;;;;8.02;1.58;;;;;;;7.29;100.00;96357.72;5003951;28;20048;-72
2022/05/29 06:11:47;;;;;;;5.18;1.55;;;;;;;7.30;100.00;96360.13;5019878;28;20038;-72
2022/05/29 06:14:12;;;;;;;6.40;1.52;;;;;;;7.37;100.00;96355.50;5020271;28;20180;-71
2022/05/29 06:16:38;;;;;;;7.38;1.70;;;;;;;7.41;100.00;96351.38;5016221;28;20037;-72
2022/05/29 06:19:06;;;;;;;4.88;1.45;;;;;;;7.46;100.00;96356.78;5016624;28;20041;-72
2022/05/29 06:21:34;;;;;;;7.47;1.65;;;;;;;7.51;100.00;96356.09;5016151;28;20377;-72
2022/05/29 06:24:00;;;;;;;7.07;1.90;;;;;;;7.63;100.00;96348.94;5017925;28;20045;-72
2022/05/29 06:26:26;;;;;;;8.93;1.80;;;;;;;7.72;100.00;96360.06;5017863;28;20036;-72
2022/05/29 06:28:51;;;;;;;8.20;1.92;;;;;;;7.77;100.00;96355.63;5016488;28;20041;-74
2022/05/29 06:31:17;;;;;;;8.85;2.58;;;;;;;7.59;100.00;96355.75;5014574;28;20136;-73
2022/05/29 06:33:42;;;;;;;6.68;2.00;;;;;;;7.85;100.00;96362.44;5015930;28;20114;-72
2022/05/29 06:36:15;;;;;;;8.43;1.77;;;;;;;8.16;100.00;96352.44;5016847;28;20037;-72
2022/05/29 06:38:42;;;;;;;12.75;2.05;;;;;;;8.34;100.00;96358.44;5018131;28;20041;-75
2022/05/29 06:41:09;;;;;;;7.97;1.85;;;;;;;8.30;100.00;96351.94;5021454;28;20092;-72
2022/05/29 06:43:36;;;;;;;12.20;2.30;;;;;;;8.15;100.00;96353.50;5016385;28;20255;-72
2022/05/29 06:46:03;;;;;;;7.05;1.95;;;;;;;8.26;100.00;96355.34;5017389;28;20488;-75
2022/05/29 06:48:31;;;;;;;4.53;1.20;;;;;;;8.28;100.00;96353.25;5015521;28;20037;-72
2022/05/29 06:51:02;;;;;;;7.82;1.48;;;;;;;8.26;100.00;96356.16;5017946;28;20191;-74
2022/05/29 06:53:27;;;;;;;6.97;1.75;;;;;;;8.26;100.00;96348.16;5016281;28;20041;-72
2022/05/29 06:55:54;;;;;;;7.78;1.65;;;;;;;8.33;100.00;96340.81;5016066;28;20528;-75
2022/05/29 06:58:20;;;;;;;6.38;1.63;;;;;;;8.42;100.00;96351.97;5015237;28;20523;-73
2022/05/29 07:08:58;;;;;;;3.67;1.58;;;;;;;8.50;100.00;96356.91;5013960;28;20041;-73
2022/05/29 07:11:27;;;;;;;6.90;1.33;;;;;;;8.71;100.00;96357.28;5013654;28;20516;-74
2022/05/29 07:13:54;;;;;;;4.63;1.48;;;;;;;8.81;100.00;96352.16;4997585;28;20045;-72
2022/05/29 07:16:20;;;;;;;10.75;1.63;;;;;;;8.81;100.00;96355.63;5013287;28;20046;-74
2022/05/29 07:18:50;;;;;;;6.35;1.55;;;;;;;8.96;100.00;96351.59;5017054;28;20069;-72
2022/05/29 07:21:16;;;;;;;5.70;1.40;;;;;;;9.06;100.00;96354.44;5014421;28;20042;-73
2022/05/29 07:23:43;;;;;;;6.25;1.40;;;;;;;9.35;100.00;96355.19;5013139;28;20049;-70
2022/05/29 07:26:08;;;;;;;3.50;1.17;;;;;;;9.48;100.00;96352.19;5016002;28;20431;-74
2022/05/29 07:28:34;;;;;;;4.78;1.10;;;;;;;9.73;100.00;96349.91;5014962;28;20109;-73
2022/05/29 07:31:00;;;;;;;4.68;1.42;;;;;;;9.77;100.00;96344.88;5015046;28;20362;-71
2022/05/29 07:33:25;;;;;;;4.60;1.27;;;;;;;9.93;100.00;96336.00;5017395;28;20037;-70
2022/05/29 07:35:51;;;;;;;3.60;1.20;;;;;;;10.03;100.00;96338.81;5015840;28;20055;-71
2022/05/29 07:38:17;;;;;;;3.55;1.20;;;;;;;9.93;100.00;96343.22;5027875;28;20168;-73
2022/05/29 07:40:43;;;;;;;4.65;1.10;;;;;;;9.88;100.00;96338.59;5016389;28;20436;-71
2022/05/29 07:43:22;;;;;;;7.07;1.30;;;;;;;9.74;100.00;96340.84;5012932;28;20049;-72
2022/05/29 07:45:54;;;;;;;7.78;1.33;;;;;;;9.85;100.00;96349.78;5015499;28;20041;-71
2022/05/29 07:48:25;;;;;;;5.72;1.33;;;;;;;10.19;100.00;96337.13;4996290;28;20043;-73
2022/05/29 07:50:51;;;;;;;;;;;;;;;10.47;100.00;96340.72;5017441;28;20046;-72
2022/05/29 07:53:17;;;;;;;7.10;1.50;;;;;;;10.64;100.00;96332.59;5016404;28;19920;-70
2022/05/29 07:55:43;;;;;;;6.97;1.40;;;;;;;10.50;100.00;96332.97;5013332;28;20048;-71
2022/05/29 07:58:09;;;;;;;6.03;1.20;;;;;;;10.80;100.00;96335.19;5016486;28;20037;-73
2022/05/29 08:00:35;;;;;;;6.65;1.40;;;;;;;10.64;100.00;96340.63;5012801;28;20044;-71
2022/05/29 08:03:02;;;;;;;4.57;1.20;;;;;;;10.47;100.00;96343.38;5015034;28;20333;-71
2022/05/29 08:05:31;;;;;;;7.32;1.50;;;;;;;10.46;100.00;96341.78;5018639;28;20528;-70
2022/05/29 08:07:57;;;;;;;5.45;1.10;;;;;;;10.53;100.00;96339.72;5015111;28;20048;-73
2022/05/29 08:10:24;;;;;;;5.35;1.38;;;;;;;10.42;100.00;96324.59;5017644;28;20482;-70
2022/05/29 08:12:50;;;;;;;3.97;1.50;;;;;;;10.60;100.00;96332.31;5015104;28;20509;-71
2022/05/29 08:15:15;;;;;;;7.75;1.40;;;;;;;10.71;100.00;96322.50;5015776;28;20047;-71
2022/05/29 08:17:41;;;;;;;6.20;1.52;;;;;;;11.24;100.00;96327.00;5015586;28;20042;-72
2022/05/29 08:20:10;;;;;;;3.63;1.20;;;;;;;11.56;100.00;96327.00;5011887;28;20146;-70
2022/05/29 08:22:35;;;;;;;3.63;1.30;;;;;;;12.37;100.00;96318.59;5014857;28;20056;-71
2022/05/29 08:30:51;;;;;;;5.63;1.50;;;;;;;12.49;100.00;96324.53;5013964;28;20064;-73
2022/05/29 08:33:25;;;;;;;7.03;1.50;;;;;;;12.21;100.00;96330.31;5015006;28;20102;-71
2022/05/29 08:36:00;;;;;;;6.28;1.60;;;;;;;12.22;100.00;96337.34;5013027;28;20045;-73
2022/05/29 08:38:28;;;;;;;3.72;1.25;;;;;;;11.83;100.00;96334.97;5032161;28;20146;-72
2022/05/29 08:41:13;;;;;;;6.05;1.58;;;;;;;12.17;100.00;96340.78;5017468;28;20619;-70
2022/05/29 08:43:48;;;;;;;9.93;1.85;;;;;;;11.92;100.00;96335.31;5025012;28;20397;-71
2022/05/29 08:46:17;;;;;;;4.50;1.40;;;;;;;11.89;100.00;96338.47;5016699;28;20077;-72
2022/05/29 08:48:42;;;;;;;6.40;1.48;;;;;;;12.07;100.00;96331.91;5012384;28;20041;-71
2022/05/29 08:51:20;;;;;;;8.82;1.60;;;;;;;12.49;100.00;96329.91;5014897;28;20102;-73
2022/05/29 08:53:57;;;;;;;6.15;1.48;;;;;;;12.81;100.00;96326.25;5030330;28;20044;-70
2022/05/29 08:56:32;;;;;;;2.88;1.23;;;;;;;13.13;100.00;96330.59;5011667;28;20210;-74
2022/05/29 08:59:04;;;;;;;5.85;1.60;;;;;;;13.36;98.56;96340.84;5012449;28;20142;-71
2022/05/29 09:01:37;;;;;;;7.78;1.58;;;;;;;13.64;95.78;96324.16;5013725;28;20569;-70
2022/05/29 09:04:10;;;;;;;6.35;1.98;;;;;;;13.58;94.90;96325.25;5014009;28;20468;-73
2022/05/29 09:06:40;;;;;;;3.95;1.67;;;;;;;13.57;96.26;96318.25;5016354;28;20113;-71
2022/05/29 09:09:20;;;;;;;5.22;1.73;;;;;;;13.28;96.60;96326.06;5017014;28;20037;-71
2022/05/29 09:11:55;;;;;;;4.45;1.95;;;;;;;13.30;97.13;96323.09;5014259;28;20069;-73
2022/05/29 09:14:23;;;;;;;6.97;2.10;;;;;;;13.24;100.00;96322.31;5012917;28;20034;-72
2022/05/29 09:17:04;;;;;;;5.75;2.05;;;;;;;13.65;97.39;96328.47;5020020;28;20041;-71
2022/05/29 09:19:40;;;;;;;8.98;2.70;;;;;;;14.35;99.27;96317.00;5016634;28;20033;-72
2022/05/29 09:22:41;;;;;;;6.07;1.77;;;;;;;14.38;94.51;96319.13;5004252;28;20554;-71
2022/05/29 09:25:24;;;;;;;5.80;2.63;;;;;;;13.93;94.25;96320.91;4996423;28;20046;-72
2022/05/29 09:27:49;;;;;;;5.22;2.38;;;;;;;13.77;94.31;96313.91;5006441;28;20104;-70
2022/05/29 09:30:16;;;;;;;4.22;1.98;;;;;;;13.45;94.24;96317.72;4992938;28;20030;-72
2022/05/29 09:32:54;;;;;;;4.30;2.20;;;;;;;13.27;95.06;96318.28;4995146;28;20050;-71
2022/05/29 09:35:25;;;;;;;3.38;1.40;;;;;;;13.00;95.67;96313.94;4993085;28;20085;-71
2022/05/29 09:38:00;;;;;;;4.82;2.63;;;;;;;13.57;97.69;96318.25;4992308;28;20543;-71
2022/05/29 09:40:36;;;;;;;5.63;2.30;;;;;;;14.31;95.79;96326.69;4994031;28;20494;-71
2022/05/29 09:43:23;;;;;;;8.32;2.35;;;;;;;13.92;100.00;96330.03;4998487;28;20054;-71
2022/05/29 09:45:50;;;;;;;4.57;2.35;;;;;;;14.38;94.01;96329.88;4995190;28;20108;-74
2022/05/29 09:51:12;;;;;;;3.15;2.10;;;;;;;14.64;95.04;96326.03;4996328;28;20473;-71
2022/05/29 09:54:09;;;;;;;4.30;2.20;;;;;;;15.00;92.78;96326.63;4998650;28;20119;-74
2022/05/29 09:56:35;;;;;;;7.68;2.85;;;;;;;14.90;92.75;96325.91;4985350;28;20081;-70
2022/05/29 09:59:18;;;;;;;5.97;2.35;;;;;;;14.58;93.85;96329.03;4992602;28;20582;-72
2022/05/29 10:01:45;;;;;;;4.55;2.38;;;;;;;14.65;95.39;96319.56;4997404;28;20049;-72
2022/05/29 10:04:15;;;;;;;4.00;2.30;;;;;;;14.68;95.29;96323.59;5003288;28;20042;-71
2022/05/29 10:06:43;;;;;;;4.55;2.58;;;;;;;14.29;97.32;96321.56;4999172;28;20386;-71
2022/05/29 10:09:17;;;;;;;4.25;2.17;;;;;;;14.29;95.69;96315.38;4997027;28;20556;-71
2022/05/29 10:11:46;;;;;;;7.32;2.55;;;;;;;14.16;97.34;96306.84;4994929;28;20034;-72
2022/05/29 10:14:18;;;;;;;7.13;2.25;;;;;;;14.00;96.17;96312.53;4996024;28;20049;-71
2022/05/29 10:16:44;;;;;;;5.50;2.78;;;;;;;14.44;93.63;96309.94;4996226;28;20068;-72
2022/05/29 10:19:13;;;;;;;5.97;3.00;;;;;;;15.04;92.69;96302.63;4997755;28;20481;-70
2022/05/29 10:21:56;;;;;;;6.10;2.20;;;;;;;15.37;85.25;96292.94;5001888;28;20061;-71
2022/05/29 10:24:39;;;;;;;4.90;2.30;;;;;;;15.60;82.86;96291.38;5017543;28;20037;-73
2022/05/29 10:27:11;;;;;;;5.03;2.28;;;;;;;15.40;85.15;96283.47;5019172;28;20037;-73
2022/05/29 10:29:38;;;;;;;4.15;2.30;;;;;;;15.00;87.26;96288.09;5019269;28;20041;-72
2022/05/29 10:32:20;;;;;;;3.92;2.60;;;;;;;14.73;91.26;96278.59;5019975;28;20318;-73
2022/05/29 10:34:47;;;;;;;5.78;3.08;;;;;;;15.47;92.79;96273.97;5020121;28;20563;-73
2022/05/29 10:37:35;;;;;;;6.45;2.20;;;;;;;16.18;83.22;96267.03;5016140;28;20638;-72
2022/05/29 10:40:31;;;;;;;5.93;2.50;;;;;;;16.09;81.84;96274.16;5017786;28;20067;-72
2022/05/29 10:43:05;;;;;;;5.75;2.25;;;;;;;15.48;82.75;96275.56;5009344;28;20126;-71
2022/05/29 10:45:34;;;;;;;6.28;2.40;;;;;;;16.20;81.36;96272.97;5034037;28;20319;-72
2022/05/29 10:48:03;;;;;;;5.13;2.08;;;;;;;16.86;75.89;96265.91;5015380;28;20081;-75
2022/05/29 10:51:07;;;;;;;3.92;2.05;;;;;;;17.50;69.66;96269.75;5019295;28;20703;-72
2022/05/29 10:53:51;;;;;;;4.10;2.05;;;;;;;17.67;63.32;96256.47;5034101;28;20049;-73
2022/05/29 10:56:31;;;;;;;6.07;2.03;;;;;;;17.19;66.67;96258.63;5017730;28;20052;-73
2022/05/29 10:59:21;;;;;;;4.55;1.60;;;;;;;16.42;74.34;96254.34;5016839;28;20037;-72
2022/05/29 11:05:01;;;;;;;3.47;1.92;;;;;;;17.40;68.87;96245.59;5015809;28;20037;-74
2022/05/29 11:07:27;;;;;;;6.18;1.80;;;;;;;17.46;73.67;96245.19;5035036;28;20060;-72
2022/05/29 11:10:01;;;;;;;4.35;1.63;;;;;;;17.27;69.48;96247.13;5016741;28;20034;-74
2022/05/29 11:12:45;;;;;;;5.25;1.50;;;;;;;17.45;64.16;96243.59;5017742;28;20118;-72
2022/05/29 11:15:16;;;;;;;3.08;1.10;;;;;;;17.20;69.74;96246.75;5015416;28;20142;-72
2022/05/29 11:18:07;;;;;;;3.25;1.27;;;;;;;18.20;56.91;96237.06;5016663;28;20391;-75
2022/05/29 11:20:55;;;;;;;4.05;1.10;;;;;;;19.32;48.13;96228.34;5020446;28;20334;-75
2022/05/29 11:23:48;;;;;;;2.67;0.95;;;;;;;21.01;42.48;96217.03;5015430;28;20049;-74
2022/05/29 11:26:42;;;;;;;2.20;1.00;;;;;;;19.92;45.18;96222.41;5016906;28;20463;-72
2022/05/29 11:29:13;;;;;;;2.47;0.90;;;;;;;22.41;40.41;96211.69;5017626;28;20047;-72
2022/05/29 11:31:39;;;;;;;1.80;0.70;;;;;;;24.73;33.09;96201.38;5014776;28;20501;-72
2022/05/29 11:34:35;;;;;;;3.85;0.95;;;;;;;26.55;29.63;96202.69;5015719;28;20152;-73
2022/05/29 11:37:29;;;;;;;1.92;0.80;;;;;;;22.70;34.21;96191.75;5005174;28;20100;-72
2022/05/29 11:40:14;;;;;;;2.35;0.90;;;;;;;20.22;40.28;96197.13;5016016;28;20037;-73
2022/05/29 11:43:04;;;;;;;2.78;0.90;;;;;;;17.28;52.30;96213.63;5015879;28;20127;-74
2022/05/29 11:51:25;;;;;;;3.08;0.90;;;;;;;15.45;89.76;96226.81;5017604;28;20098;-74
2022/05/29 11:53:57;;;;;;;5.28;0.90;;;;;;;14.79;100.00;96227.41;5012296;28;20042;-73
2022/05/29 11:56:37;;;;;;;3.95;1.13;;;;;;;14.59;100.00;96231.81;5015234;28;20052;-72
2022/05/29 11:59:15;;;;;;;3.10;0.80;;;;;;;15.25;97.96;96223.25;5031610;28;20152;-72
2022/05/29 12:01:47;;;;;;;3.47;1.33;;;;;;;15.07;100.00;96215.84;5015156;28;20046;-74
2022/05/29 12:04:36;;;;;;;2.15;0.80;;;;;;;16.78;91.19;96216.03;5016371;28;20500;-73
2022/05/29 12:07:25;;;;;;;2.20;0.90;;;;;;;22.58;58.53;96196.34;5016849;28;20103;-76
2022/05/29 12:10:15;;;;;;;2.22;0.80;;;;;;;25.14;37.26;96185.78;5015034;28;20504;-73
2022/05/29 12:12:47;;;;;;;2.25;0.90;;;;;;;23.40;38.94;96185.69;5017667;28;20055;-72
2022/05/29 12:15:17;;;;;;;1.65;0.70;;;;;;;21.84;41.23;96198.47;5016780;28;20041;-72
2022/05/29 12:17:48;;;;;;;1.92;0.82;;;;;;;20.77;47.54;96193.06;5016241;28;20088;-73
2022/05/29 12:20:23;;;;;;;1.60;0.77;;;;;;;24.34;39.63;96185.72;5016760;28;20137;-72
2022/05/29 12:22:55;;;;;;;2.72;1.00;;;;;;;23.63;37.16;96181.47;5015147;28;20084;-74
2022/05/29 12:25:32;;;;;;;2.40;1.05;;;;;;;29.09;30.00;96182.06;5015762;28;20044;-75
2022/05/29 12:28:03;;;;;;;4.43;1.13;;;;;;;29.29;27.75;96176.41;5017948;28;20132;-74